Terminal Aerodrome Forecast
Issued by NWS Cleveland, OH

Home | Current Version | Previous Version | Graphics & Text | Print | Product List | Glossary On
Versions: 1 2 3 4 5 6 7 8 9 10 11 12 13 14 15 16 17
537
FTUS41 KCLE 241120
TAFTOL
TAF
KTOL 241120Z 2412/2512 18010KT P6SM SCT050 BKN250
     FM241500 20010KT P6SM BKN050 OVC120
     FM241800 22010KT P6SM VCSH OVC050
      TEMPO 2420/2424 4SM TSRA OVC025CB
     FM250000 22008KT 6SM -SHRA BR OVC035
     FM250800 23006KT 3SM BR OVC035=

USA.gov is the U.S. government's official web portal to all federal, state and local government web resources and services.